createdAt,value
2023-04-12T00:03:31.510Z,1009.98
2023-04-12T00:08:28.552Z,1009.86
2023-04-12T00:13:28.891Z,1009.90
2023-04-12T00:18:29.234Z,1009.62
2023-04-12T00:23:27.480Z,1009.49
2023-04-12T00:28:26.736Z,1009.36
2023-04-12T00:33:26.032Z,1009.15
2023-04-12T00:38:25.333Z,1009.43
2023-04-12T00:43:24.609Z,1009.21
2023-04-12T00:48:23.869Z,1009.01
2023-04-12T00:53:23.144Z,1009.04
2023-04-12T00:58:22.395Z,1009.02
2023-04-12T01:03:21.760Z,1009.05
2023-04-12T01:08:21.842Z,1008.90
2023-04-12T01:13:21.122Z,1008.74
2023-04-12T01:18:20.358Z,1008.63
2023-04-12T01:23:18.600Z,1008.66
2023-04-12T01:28:18.855Z,1008.61
2023-04-12T01:33:18.097Z,1008.51
2023-04-12T01:38:17.362Z,1008.63
2023-04-12T01:43:15.621Z,1008.40
2023-04-12T01:48:14.908Z,1008.39
2023-04-12T01:53:15.215Z,1008.17
2023-04-12T01:58:13.485Z,1008.04
2023-04-12T02:03:12.974Z,1007.98
2023-04-12T02:08:11.983Z,1007.85
2023-04-12T02:13:11.312Z,1007.80
2023-04-12T02:18:10.667Z,1007.79
2023-04-12T02:23:09.782Z,1007.60
2023-04-12T02:28:12.049Z,1007.55
2023-04-12T02:33:08.320Z,1007.30
2023-04-12T02:38:07.617Z,1007.31
2023-04-12T02:43:06.921Z,1007.13
2023-04-12T02:48:06.230Z,1007.22
2023-04-12T02:53:05.465Z,1007.29
2023-04-12T02:58:05.746Z,1007.06
2023-04-12T03:03:05.177Z,1007.16
2023-04-12T03:08:03.329Z,1007.10
2023-04-12T03:13:02.587Z,1006.93
2023-04-12T03:18:02.906Z,1006.85
2023-04-12T03:23:01.018Z,1006.62
2023-04-12T03:28:00.292Z,1006.63
2023-04-12T03:33:01.633Z,1006.63
2023-04-12T03:37:57.732Z,1006.37
2023-04-12T03:42:59.941Z,1006.36
2023-04-12T03:47:57.228Z,1006.37
2023-04-12T03:52:57.120Z,1006.33
2023-04-12T03:57:55.775Z,1006.36
2023-04-12T04:02:56.125Z,1006.36
2023-04-12T04:07:54.386Z,1006.38
2023-04-12T04:12:54.680Z,1006.44
2023-04-12T04:17:52.974Z,1006.29
2023-04-12T04:22:54.260Z,1006.17
2023-04-12T04:27:51.507Z,1006.20
2023-04-12T04:32:50.914Z,1006.11
2023-04-12T04:37:51.014Z,1006.16
2023-04-12T04:42:50.217Z,1006.08
2023-04-12T04:47:49.522Z,1006.14
2023-04-12T04:52:48.738Z,1005.97
2023-04-12T04:57:46.976Z,1005.83
2023-04-12T05:02:45.295Z,1005.92
2023-04-12T05:07:45.439Z,1005.84
2023-04-12T05:12:44.712Z,1005.87
2023-04-12T05:17:44.018Z,1005.87
2023-04-12T05:22:43.286Z,1005.83
2023-04-12T05:27:42.545Z,1005.78
2023-04-12T05:32:42.862Z,1005.69
2023-04-12T05:37:43.144Z,1005.69
2023-04-12T05:42:40.392Z,1005.64
2023-04-12T05:47:38.714Z,1005.64
2023-04-12T05:52:38.945Z,1005.60
2023-04-12T05:57:38.203Z,1005.51
2023-04-12T06:02:37.638Z,1005.57
2023-04-12T06:07:36.600Z,1005.46
2023-04-12T06:12:35.865Z,1005.42
2023-04-12T06:17:36.140Z,1005.42
2023-04-12T06:22:35.371Z,1005.34
2023-04-12T06:27:33.796Z,1005.33
2023-04-12T06:32:32.837Z,1005.14
2023-04-12T06:37:32.088Z,1004.99
2023-04-12T06:42:31.348Z,1004.88
2023-04-12T06:47:30.656Z,1004.79
2023-04-12T06:52:30.900Z,1004.60
2023-04-12T06:57:29.253Z,1004.55
2023-04-12T07:02:28.399Z,1004.39
2023-04-12T07:07:27.528Z,1004.38
2023-04-12T07:12:28.848Z,1004.38
2023-04-12T07:17:27.218Z,1004.17
2023-04-12T07:22:26.352Z,1003.86
2023-04-12T07:27:26.617Z,1003.90
2023-04-12T07:32:23.967Z,1003.85
2023-04-12T07:37:24.062Z,1003.74
2023-04-12T07:42:23.319Z,1003.72
2023-04-12T07:47:21.607Z,1003.60
2023-04-12T07:52:22.894Z,1003.42
2023-04-12T07:57:20.160Z,1003.43
2023-04-12T08:02:19.510Z,1003.48
2023-04-12T08:07:18.578Z,1003.24
2023-04-12T08:12:17.838Z,1003.10
2023-04-12T08:17:17.127Z,1003.07
2023-04-12T08:22:16.417Z,1002.80
2023-04-12T08:27:15.663Z,1002.77
2023-04-12T08:32:14.927Z,1002.75
2023-04-12T08:37:14.234Z,1002.51
2023-04-12T08:42:13.371Z,1002.58
2023-04-12T08:47:12.719Z,1002.46
2023-04-12T08:52:10.843Z,1002.33
2023-04-12T08:57:10.967Z,1002.38
2023-04-12T09:02:10.387Z,1002.27
2023-04-12T09:07:10.701Z,1002.18
2023-04-12T09:12:08.768Z,1002.15
2023-04-12T09:17:07.103Z,1002.18
2023-04-12T09:22:07.214Z,1002.11
2023-04-12T09:27:06.480Z,1002.07
2023-04-12T09:32:06.844Z,1002.04
2023-04-12T09:37:04.981Z,1001.90
2023-04-12T09:42:04.098Z,1001.88
2023-04-12T09:47:04.386Z,1001.92
2023-04-12T09:52:02.722Z,1001.88
2023-04-12T09:57:01.841Z,1001.85
2023-04-12T10:02:01.110Z,1001.86
2023-04-12T10:07:00.301Z,1001.67
2023-04-12T10:12:00.593Z,1001.60
2023-04-12T10:16:58.994Z,1001.61
2023-04-12T10:21:59.100Z,1001.61
2023-04-12T10:26:57.361Z,1001.58
2023-04-12T10:31:55.801Z,1001.58
2023-04-12T10:36:55.892Z,1001.57
2023-04-12T10:41:55.201Z,1001.65
2023-04-12T10:46:54.509Z,1001.63
2023-04-12T10:51:53.808Z,1001.69
2023-04-12T10:56:52.141Z,1001.63
2023-04-12T11:01:53.406Z,1001.64
2023-04-12T11:06:53.050Z,1001.48
2023-04-12T11:11:50.752Z,1001.48
2023-04-12T11:16:48.874Z,1001.44
2023-04-12T11:21:48.024Z,1001.33
2023-04-12T11:26:48.359Z,1001.34
2023-04-12T11:31:49.501Z,1001.30
2023-04-12T11:36:47.972Z,1001.35
2023-04-12T11:41:46.064Z,1001.18
2023-04-12T11:46:45.397Z,1001.11
2023-04-12T11:51:45.798Z,1001.17
2023-04-12T11:56:43.939Z,1001.19
2023-04-12T12:01:43.235Z,1001.15
2023-04-12T12:06:43.464Z,1001.33
2023-04-12T12:11:40.705Z,1001.16
2023-04-12T12:16:40.851Z,1001.17
2023-04-12T12:21:40.132Z,1001.22
2023-04-12T12:26:40.451Z,1001.18
2023-04-12T12:31:37.857Z,1001.14
2023-04-12T12:36:39.165Z,1001.14
2023-04-12T12:41:38.344Z,1001.18
2023-04-12T12:46:52.059Z,1001.37
2023-04-12T12:51:37.947Z,1001.21
2023-04-12T12:56:35.248Z,1001.29
2023-04-12T13:01:33.568Z,1001.26
2023-04-12T13:06:33.781Z,1001.39
2023-04-12T13:11:33.071Z,1001.32
2023-04-12T13:16:32.508Z,1001.17
2023-04-12T13:21:31.592Z,1001.09
2023-04-12T13:26:31.046Z,1001.14
2023-04-12T13:31:30.222Z,1000.91
2023-04-12T13:36:29.333Z,1001.13
2023-04-12T13:41:29.638Z,1001.27
2023-04-12T13:46:28.979Z,1001.23
2023-04-12T13:51:27.055Z,1001.21
2023-04-12T13:56:27.315Z,1001.42
2023-04-12T14:01:25.896Z,1001.35
2023-04-12T14:06:24.782Z,1001.25
2023-04-12T14:11:24.088Z,1001.14
2023-04-12T14:16:24.395Z,1000.95
2023-04-12T14:21:22.629Z,1000.96
2023-04-12T14:26:21.934Z,1000.91
2023-04-12T14:31:22.251Z,1000.92
2023-04-12T14:36:20.544Z,1000.76
2023-04-12T14:41:20.816Z,1000.71
2023-04-12T14:46:18.136Z,1000.83
2023-04-12T14:51:18.419Z,1000.73
2023-04-12T14:56:17.754Z,1000.57
2023-04-12T15:01:17.085Z,1000.54
2023-04-12T15:06:16.385Z,1000.57
2023-04-12T15:11:17.692Z,1000.52
2023-04-12T15:16:15.118Z,1000.42
2023-04-12T15:21:14.301Z,1000.47
2023-04-12T15:26:13.399Z,1000.36
2023-04-12T15:31:12.775Z,1000.48
2023-04-12T15:36:11.944Z,1000.32
2023-04-12T15:41:11.299Z,1000.26
2023-04-12T15:46:09.454Z,1000.30
2023-04-12T15:51:08.776Z,1000.26
2023-04-12T15:56:08.895Z,1000.24
2023-04-12T16:01:08.245Z,1000.35
2023-04-12T16:06:07.711Z,1000.36
2023-04-12T16:11:06.809Z,1000.38
2023-04-12T16:16:06.193Z,1000.28
2023-04-12T16:21:06.350Z,1000.22
2023-04-12T16:26:05.564Z,1000.16
2023-04-12T16:31:03.708Z,1000.14
2023-04-12T16:36:02.831Z,1000.08
2023-04-12T16:41:02.217Z,1000.12
2023-04-12T16:46:02.347Z,1000.11
2023-04-12T16:51:00.682Z,1000.11
2023-04-12T16:56:00.908Z,1000.11
2023-04-12T17:00:59.048Z,1000.08
2023-04-12T17:05:58.710Z,1000.19
2023-04-12T17:10:57.126Z,1000.16
2023-04-12T17:15:57.409Z,1000.14
2023-04-12T17:20:56.658Z,1000.13
2023-04-12T17:25:55.861Z,1000.26
2023-04-12T17:30:55.070Z,1000.25
2023-04-12T17:35:54.085Z,1000.19
2023-04-12T17:40:53.409Z,1000.29
2023-04-12T17:45:52.404Z,1000.40
2023-04-12T17:50:52.120Z,1000.64
2023-04-12T17:55:51.301Z,1000.70
2023-04-12T18:00:50.495Z,1000.62
2023-04-12T18:05:50.406Z,1000.69
2023-04-12T18:10:47.989Z,1000.83
2023-04-12T18:15:48.080Z,1000.86
2023-04-12T18:20:47.491Z,1000.79
2023-04-12T18:25:46.688Z,1000.75
2023-04-12T18:30:46.637Z,1001.18
2023-04-12T18:35:44.240Z,1000.99
2023-04-12T18:40:43.439Z,1001.07
2023-04-12T18:45:43.571Z,1001.16
2023-04-12T18:50:47.819Z,1001.20
2023-04-12T18:55:43.014Z,1001.13
2023-04-12T19:00:42.006Z,1001.17
2023-04-12T19:05:42.698Z,1001.34
2023-04-12T19:10:40.884Z,1001.39
2023-04-12T19:15:39.058Z,1001.61
2023-04-12T19:20:37.815Z,1001.68
2023-04-12T19:25:38.510Z,1001.87
2023-04-12T19:30:37.681Z,1001.97
2023-04-12T19:35:37.817Z,1001.88
2023-04-12T19:40:34.891Z,1002.19
2023-04-12T19:45:34.317Z,1002.33
2023-04-12T19:50:34.566Z,1002.20
2023-04-12T19:55:33.415Z,1002.22
2023-04-12T20:00:33.179Z,1002.24
2023-04-12T20:05:31.287Z,1002.27
2023-04-12T20:10:30.601Z,1002.17
2023-04-12T20:15:29.719Z,1002.52
2023-04-12T20:20:29.817Z,1002.46
2023-04-12T20:25:27.112Z,1002.38
2023-04-12T20:30:27.461Z,1002.23
2023-04-12T20:35:26.516Z,1002.40
2023-04-12T20:40:27.575Z,1002.21
2023-04-12T20:45:28.257Z,1002.43
2023-04-12T20:50:24.986Z,1002.19
2023-04-12T20:55:24.630Z,1002.44
2023-04-12T21:00:22.909Z,1002.46
2023-04-12T21:05:23.814Z,1002.51
2023-04-12T21:10:22.127Z,1002.62
2023-04-12T21:15:20.359Z,1002.61
2023-04-12T21:20:21.659Z,1002.46
2023-04-12T21:25:20.902Z,1002.47
2023-04-12T21:30:21.184Z,1002.36
2023-04-12T21:35:17.415Z,1002.30
2023-04-12T21:40:16.679Z,1002.32
2023-04-12T21:45:16.967Z,1002.30
2023-04-12T21:50:15.245Z,1002.24
2023-04-12T21:55:14.523Z,1002.22
2023-04-12T22:00:14.835Z,1002.11
2023-04-12T22:05:15.130Z,1002.31
2023-04-12T22:10:12.584Z,1002.58
2023-04-12T22:15:14.690Z,1002.81
2023-04-12T22:20:13.102Z,1003.40
2023-04-12T22:25:10.249Z,1003.77
2023-04-12T22:30:09.555Z,1004.17
2023-04-12T22:35:09.378Z,1004.45
2023-04-12T22:40:07.218Z,1004.52
2023-04-12T22:45:07.506Z,1004.48
2023-04-12T22:50:06.807Z,1004.56
2023-04-12T22:55:06.216Z,1004.84
2023-04-12T23:00:04.225Z,1005.10
2023-04-12T23:05:03.615Z,1005.28
2023-04-12T23:10:03.793Z,1005.23
2023-04-12T23:15:01.925Z,1005.16
2023-04-12T23:20:02.393Z,1005.07
2023-04-12T23:25:02.510Z,1005.15
2023-04-12T23:29:59.775Z,1005.27
2023-04-12T23:34:59.975Z,1005.29
2023-04-12T23:39:59.267Z,1005.32
2023-04-12T23:44:58.329Z,1005.22
2023-04-12T23:49:58.082Z,1005.15
2023-04-12T23:54:56.871Z,1005.00
2023-04-12T23:59:55.848Z,1004.90
